Time,TemperatureF,DewpointF,PressureIn,WindDirection,WindDirectionDegrees,WindSpeedMPH,WindSpeedGustMPH,Humidity,HourlyPrecipIn,Conditions,Clouds,dailyrainin,SoftwareType,DateUTC
2013-02-14 00:02:00,43.0,31.0,29.84,West,265,10.0,17.0,64,-99.99,,,-99.99,,2013-02-14 06:02:00,
2013-02-14 00:11:00,43.0,31.0,29.84,West,260,11.0,16.0,64,-99.99,,,-99.99,,2013-02-14 06:11:00,
2013-02-14 00:21:00,43.0,31.0,29.84,West,260,11.0,16.0,64,-99.99,,,-99.99,,2013-02-14 06:21:00,
2013-02-14 00:32:00,43.0,31.0,29.84,WSW,255,10.0,18.0,64,-99.99,,,-99.99,,2013-02-14 06:32:00,
2013-02-14 00:42:00,43.0,32.0,29.84,WSW,255,11.0,15.0,64,-99.99,,,-99.99,,2013-02-14 06:42:00,
2013-02-14 00:51:00,43.0,32.0,29.84,WSW,255,11.0,15.0,64,-99.99,,,-99.99,,2013-02-14 06:51:00,
2013-02-14 01:01:00,43.0,31.0,29.84,West,265,11.0,17.0,63,-99.99,,,-99.99,,2013-02-14 07:01:00,
2013-02-14 01:11:00,44.0,31.0,29.83,West,260,12.0,17.0,61,-99.99,,,-99.99,,2013-02-14 07:11:00,
2013-02-14 01:21:00,44.0,31.0,29.83,West,260,12.0,17.0,61,-99.99,,,-99.99,,2013-02-14 07:21:00,
2013-02-14 01:32:00,44.0,31.0,29.84,West,280,12.0,20.0,60,-99.99,,,-99.99,,2013-02-14 07:32:00,
2013-02-14 01:41:00,43.0,31.0,29.84,West,265,11.0,19.0,61,-99.99,,,-99.99,,2013-02-14 07:41:00,
2013-02-14 01:51:00,43.0,31.0,29.84,West,265,11.0,19.0,61,-99.99,,,-99.99,,2013-02-14 07:51:00,
2013-02-14 02:01:00,43.0,30.0,29.84,West,280,9.0,14.0,61,-99.99,,,-99.99,,2013-02-14 08:01:00,
2013-02-14 02:11:00,43.0,30.0,29.84,West,280,10.0,17.0,61,-99.99,,,-99.99,,2013-02-14 08:11:00,
2013-02-14 02:21:00,43.0,30.0,29.84,West,280,10.0,17.0,61,-99.99,,,-99.99,,2013-02-14 08:21:00,
2013-02-14 02:32:00,43.0,30.0,29.84,West,270,11.0,17.0,60,-99.99,,,-99.99,,2013-02-14 08:32:00,
2013-02-14 02:43:00,42.0,29.0,29.84,West,260,10.0,17.0,59,-99.99,,,-99.99,,2013-02-14 08:43:00,
2013-02-14 02:52:00,42.0,29.0,29.84,West,260,10.0,17.0,59,-99.99,,,-99.99,,2013-02-14 08:52:00,
2013-02-14 03:02:00,42.0,28.0,29.84,West,280,10.0,15.0,57,-99.99,,,-99.99,,2013-02-14 09:02:00,
2013-02-14 03:11:00,42.0,28.0,29.84,West,275,7.0,16.0,57,-99.99,,,-99.99,,2013-02-14 09:11:00,
2013-02-14 03:21:00,42.0,28.0,29.84,West,275,7.0,16.0,57,-99.99,,,-99.99,,2013-02-14 09:21:00,
2013-02-14 03:32:00,42.0,28.0,29.84,West,275,10.0,16.0,56,-99.99,,,-99.99,,2013-02-14 09:32:00,
2013-02-14 03:42:00,42.0,28.0,29.84,West,280,7.0,15.0,56,-99.99,,,-99.99,,2013-02-14 09:42:00,
2013-02-14 03:51:00,42.0,28.0,29.84,West,280,7.0,15.0,56,-99.99,,,-99.99,,2013-02-14 09:51:00,
2013-02-14 04:02:00,42.0,27.0,29.84,WNW,295,10.0,16.0,56,-99.99,,,-99.99,,2013-02-14 10:02:00,
2013-02-14 04:11:00,42.0,27.0,29.84,West,280,11.0,18.0,55,-99.99,,,-99.99,,2013-02-14 10:11:00,
2013-02-14 04:21:00,42.0,27.0,29.84,West,280,11.0,18.0,55,-99.99,,,-99.99,,2013-02-14 10:21:00,
2013-02-14 04:31:00,42.0,27.0,29.84,NW,310,10.0,15.0,55,-99.99,,,-99.99,,2013-02-14 10:31:00,
2013-02-14 04:42:00,42.0,27.0,29.84,West,275,11.0,17.0,55,-99.99,,,-99.99,,2013-02-14 10:42:00,
2013-02-14 04:52:00,42.0,27.0,29.84,West,275,11.0,17.0,55,-99.99,,,-99.99,,2013-02-14 10:52:00,
2013-02-14 05:02:00,42.0,27.0,29.84,WNW,285,10.0,18.0,55,-99.99,,,-99.99,,2013-02-14 11:02:00,
2013-02-14 05:11:00,42.0,27.0,29.84,WNW,285,10.0,16.0,56,-99.99,,,-99.99,,2013-02-14 11:11:00,
2013-02-14 05:21:00,42.0,27.0,29.84,WNW,285,10.0,16.0,56,-99.99,,,-99.99,,2013-02-14 11:21:00,
2013-02-14 05:32:00,41.0,27.0,29.84,West,275,12.0,19.0,57,-99.99,,,-99.99,,2013-02-14 11:32:00,
2013-02-14 05:42:00,41.0,27.0,29.85,West,280,9.0,14.0,57,-99.99,,,-99.99,,2013-02-14 11:42:00,
2013-02-14 05:52:00,41.0,27.0,29.85,West,280,9.0,14.0,57,-99.99,,,-99.99,,2013-02-14 11:52:00,
2013-02-14 06:02:00,40.0,27.0,29.84,West,280,8.0,17.0,58,-99.99,,,-99.99,,2013-02-14 12:02:00,
2013-02-14 06:12:00,41.0,27.0,29.84,West,270,9.0,15.0,57,-99.99,,,-99.99,,2013-02-14 12:12:00,
2013-02-14 06:22:00,41.0,27.0,29.84,West,270,9.0,15.0,57,-99.99,,,-99.99,,2013-02-14 12:22:00,
2013-02-14 06:32:00,40.0,26.0,29.84,West,260,8.0,14.0,57,-99.99,,,-99.99,,2013-02-14 12:32:00,
2013-02-14 06:42:00,40.0,26.0,29.85,West,280,7.0,13.0,57,-99.99,,,-99.99,,2013-02-14 12:42:00,
2013-02-14 06:53:00,40.0,26.0,29.85,West,280,7.0,13.0,57,-99.99,,,-99.99,,2013-02-14 12:53:00,
2013-02-14 07:02:00,40.0,26.0,29.86,WSW,255,7.0,14.0,57,-99.99,,,-99.99,,2013-02-14 13:02:00,
2013-02-14 07:11:00,40.0,26.0,29.86,West,265,6.0,15.0,57,-99.99,,,-99.99,,2013-02-14 13:11:00,
2013-02-14 07:21:00,40.0,26.0,29.86,West,265,6.0,15.0,57,-99.99,,,-99.99,,2013-02-14 13:21:00,
2013-02-14 07:32:00,40.0,26.0,29.87,West,275,9.0,16.0,57,-99.99,,,-99.99,,2013-02-14 13:32:00,
2013-02-14 07:42:00,39.0,26.0,29.88,WNW,300,6.0,13.0,58,-99.99,,,-99.99,,2013-02-14 13:42:00,
2013-02-14 07:51:00,39.0,26.0,29.88,WNW,300,6.0,13.0,58,-99.99,,,-99.99,,2013-02-14 13:51:00,
2013-02-14 08:01:00,39.0,26.0,29.88,West,280,6.0,12.0,59,-99.99,,,-99.99,,2013-02-14 14:01:00,
2013-02-14 08:11:00,39.0,26.0,29.89,West,280,8.0,13.0,59,-99.99,,,-99.99,,2013-02-14 14:11:00,
2013-02-14 08:21:00,39.0,26.0,29.89,West,280,8.0,13.0,59,-99.99,,,-99.99,,2013-02-14 14:21:00,
2013-02-14 08:31:00,40.0,27.0,29.90,WNW,290,6.0,11.0,59,-99.99,,,-99.99,,2013-02-14 14:31:00,
2013-02-14 08:41:00,40.0,27.0,29.91,NW,310,5.0,11.0,59,-99.99,,,-99.99,,2013-02-14 14:41:00,
2013-02-14 08:52:00,40.0,27.0,29.91,NW,310,5.0,11.0,59,-99.99,,,-99.99,,2013-02-14 14:52:00,
2013-02-14 09:02:00,41.0,27.0,29.92,NW,310,10.0,17.0,58,-99.99,,,-99.99,,2013-02-14 15:02:00,
2013-02-14 09:11:00,41.0,28.0,29.92,WNW,290,7.0,13.0,58,-99.99,,,-99.99,,2013-02-14 15:11:00,
2013-02-14 09:21:00,41.0,28.0,29.92,WNW,290,7.0,13.0,58,-99.99,,,-99.99,,2013-02-14 15:21:00,
2013-02-14 09:32:00,42.0,29.0,29.93,NW,310,7.0,11.0,58,-99.99,,,-99.99,,2013-02-14 15:32:00,
2013-02-14 09:42:00,43.0,30.0,29.93,NW,315,8.0,12.0,59,-99.99,,,-99.99,,2013-02-14 15:42:00,
2013-02-14 09:52:00,43.0,30.0,29.93,NW,315,8.0,12.0,59,-99.99,,,-99.99,,2013-02-14 15:52:00,
2013-02-14 10:02:00,45.0,31.0,29.94,NW,320,7.0,17.0,58,-99.99,,,-99.99,,2013-02-14 16:02:00,
2013-02-14 10:11:00,45.0,31.0,29.94,NW,310,6.0,15.0,57,-99.99,,,-99.99,,2013-02-14 16:11:00,
2013-02-14 10:21:00,45.0,31.0,29.94,NW,310,6.0,15.0,57,-99.99,,,-99.99,,2013-02-14 16:21:00,
2013-02-14 10:32:00,45.0,31.0,29.94,NW,320,9.0,16.0,57,-99.99,,,-99.99,,2013-02-14 16:32:00,
2013-02-14 10:41:00,46.0,32.0,29.95,NW,305,10.0,15.0,57,-99.99,,,-99.99,,2013-02-14 16:41:00,
2013-02-14 10:51:00,47.0,32.0,29.95,NNW,330,6.0,14.0,56,-99.99,,,-99.99,,2013-02-14 16:51:00,
2013-02-14 11:01:00,47.0,32.0,29.95,NNW,330,6.0,14.0,56,-99.99,,,-99.99,,2013-02-14 17:01:00,
2013-02-14 11:11:00,47.0,32.0,29.95,NW,310,9.0,14.0,55,-99.99,,,-99.99,,2013-02-14 17:11:00,
2013-02-14 11:21:00,47.0,32.0,29.95,NW,310,9.0,14.0,55,-99.99,,,-99.99,,2013-02-14 17:21:00,
2013-02-14 11:32:00,48.0,33.0,29.95,NW,305,7.0,13.0,56,-99.99,,,-99.99,,2013-02-14 17:32:00,
2013-02-14 11:42:00,48.0,33.0,29.96,NW,310,8.0,13.0,55,-99.99,,,-99.99,,2013-02-14 17:42:00,
2013-02-14 11:52:00,48.0,33.0,29.96,NW,310,8.0,13.0,55,-99.99,,,-99.99,,2013-02-14 17:52:00,
2013-02-14 12:01:00,49.0,33.0,29.95,NW,315,6.0,12.0,54,-99.99,,,-99.99,,2013-02-14 18:01:00,
2013-02-14 12:11:00,50.0,34.0,29.96,NW,315,7.0,12.0,53,-99.99,,,-99.99,,2013-02-14 18:11:00,
2013-02-14 12:20:00,53.0,33.0,29.95,NW,310,7.0,16.0,47,-99.99,,,-99.99,,2013-02-14 18:20:00,
2013-02-14 12:23:00,50.0,34.0,29.96,NW,315,7.0,12.0,53,-99.99,,,-99.99,,2013-02-14 18:23:00,
2013-02-14 12:32:00,51.0,33.0,29.96,WNW,295,7.0,11.0,51,-99.99,,,-99.99,,2013-02-14 18:32:00,
2013-02-14 12:42:00,51.0,32.0,29.95,WNW,285,8.0,11.0,48,-99.99,,,-99.99,,2013-02-14 18:42:00,
2013-02-14 12:51:00,51.0,32.0,29.95,WNW,285,8.0,11.0,48,-99.99,,,-99.99,,2013-02-14 18:51:00,
2013-02-14 13:02:00,53.0,33.0,29.95,NW,310,7.0,16.0,47,-99.99,,,-99.99,,2013-02-14 19:02:00,
2013-02-14 13:11:00,53.0,33.0,29.95,NW,310,7.0,16.0,47,-99.99,,,-99.99,,2013-02-14 19:11:00,
2013-02-14 13:32:00,53.0,33.0,29.95,NW,305,9.0,16.0,46,-99.99,,,-99.99,,2013-02-14 19:32:00,
2013-02-14 13:42:00,53.0,32.0,29.94,NW,320,8.0,14.0,44,-99.99,,,-99.99,,2013-02-14 19:42:00,
2013-02-14 13:51:00,53.0,32.0,29.94,NW,320,8.0,14.0,44,-99.99,,,-99.99,,2013-02-14 19:51:00,
2013-02-14 14:01:00,53.0,31.0,29.94,WNW,285,10.0,13.0,43,-99.99,,,-99.99,,2013-02-14 20:01:00,
2013-02-14 14:11:00,53.0,32.0,29.94,West,260,11.0,17.0,44,-99.99,,,-99.99,,2013-02-14 20:11:00,
2013-02-14 14:21:00,53.0,32.0,29.94,West,260,11.0,17.0,44,-99.99,,,-99.99,,2013-02-14 20:21:00,
2013-02-14 14:32:00,53.0,32.0,29.94,WNW,295,5.0,11.0,44,-99.99,,,-99.99,,2013-02-14 20:32:00,
2013-02-14 14:42:00,54.0,31.0,29.93,NW,305,7.0,13.0,42,-99.99,,,-99.99,,2013-02-14 20:42:00,
2013-02-14 14:52:00,54.0,31.0,29.93,NW,305,7.0,13.0,42,-99.99,,,-99.99,,2013-02-14 20:52:00,
2013-02-14 15:02:00,53.0,31.0,29.94,West,270,11.0,15.0,42,-99.99,,,-99.99,,2013-02-14 21:02:00,
2013-02-14 15:11:00,54.0,31.0,29.94,WNW,295,10.0,17.0,41,-99.99,,,-99.99,,2013-02-14 21:11:00,
2013-02-14 15:21:00,54.0,31.0,29.94,WNW,295,10.0,17.0,41,-99.99,,,-99.99,,2013-02-14 21:21:00,
2013-02-14 15:31:00,54.0,30.0,29.94,WNW,295,10.0,15.0,40,-99.99,,,-99.99,,2013-02-14 21:31:00,
2013-02-14 15:42:00,55.0,30.0,29.95,NW,325,9.0,15.0,38,-99.99,,,-99.99,,2013-02-14 21:42:00,
2013-02-14 15:51:00,55.0,30.0,29.95,NW,325,9.0,15.0,38,-99.99,,,-99.99,,2013-02-14 21:51:00,
2013-02-14 16:02:00,55.0,29.0,29.95,NW,325,11.0,19.0,37,-99.99,,,-99.99,,2013-02-14 22:02:00,
2013-02-14 16:11:00,54.0,29.0,29.95,WNW,300,11.0,17.0,38,-99.99,,,-99.99,,2013-02-14 22:11:00,
2013-02-14 16:21:00,54.0,29.0,29.95,WNW,300,11.0,17.0,38,-99.99,,,-99.99,,2013-02-14 22:21:00,
2013-02-14 16:31:00,55.0,28.0,29.96,NW,320,11.0,19.0,36,-99.99,,,-99.99,,2013-02-14 22:31:00,
2013-02-14 16:42:00,54.0,26.0,29.96,NW,315,12.0,19.0,34,-99.99,,,-99.99,,2013-02-14 22:42:00,
2013-02-14 16:51:00,54.0,26.0,29.96,NW,315,12.0,19.0,34,-99.99,,,-99.99,,2013-02-14 22:51:00,
2013-02-14 17:01:00,54.0,27.0,29.97,NW,325,10.0,22.0,35,-99.99,,,-99.99,,2013-02-14 23:01:00,
2013-02-14 17:11:00,53.0,28.0,29.97,NW,315,7.0,19.0,37,-99.99,,,-99.99,,2013-02-14 23:11:00,
2013-02-14 17:21:00,53.0,28.0,29.97,NW,315,7.0,19.0,37,-99.99,,,-99.99,,2013-02-14 23:21:00,
2013-02-14 17:32:00,52.0,29.0,29.98,NW,310,9.0,17.0,40,-99.99,,,-99.99,,2013-02-14 23:32:00,
2013-02-14 17:42:00,52.0,28.0,29.98,NNW,330,8.0,14.0,40,-99.99,,,-99.99,,2013-02-14 23:42:00,
2013-02-14 17:52:00,52.0,28.0,29.98,NNW,330,8.0,14.0,40,-99.99,,,-99.99,,2013-02-14 23:52:00,
2013-02-14 18:00:00,50.0,29.0,30.00,NNW,340,7.0,13.0,45,-99.99,,,-99.99,,2013-02-15 00:00:00,
2013-02-14 18:01:00,51.0,29.0,29.98,NW,325,7.0,13.0,42,-99.99,,,-99.99,,2013-02-15 00:01:00,
2013-02-14 18:11:00,51.0,29.0,29.99,NW,325,7.0,12.0,43,-99.99,,,-99.99,,2013-02-15 00:11:00,
2013-02-14 18:22:00,51.0,29.0,29.99,NW,325,7.0,12.0,43,-99.99,,,-99.99,,2013-02-15 00:22:00,
2013-02-14 18:32:00,50.0,29.0,29.99,NW,325,7.0,13.0,44,-99.99,,,-99.99,,2013-02-15 00:32:00,
2013-02-14 18:42:00,50.0,29.0,30.00,NNW,340,7.0,13.0,45,-99.99,,,-99.99,,2013-02-15 00:42:00,
2013-02-14 18:51:00,50.0,29.0,30.00,NNW,340,7.0,13.0,45,-99.99,,,-99.99,,2013-02-15 00:51:00,
2013-02-14 19:11:00,49.0,29.0,30.01,NNW,340,7.0,12.0,46,-99.99,,,-99.99,,2013-02-15 01:11:00,
2013-02-14 19:21:00,49.0,29.0,30.01,NNW,340,7.0,12.0,46,-99.99,,,-99.99,,2013-02-15 01:21:00,
2013-02-14 19:31:00,48.0,29.0,30.02,NW,325,6.0,11.0,48,-99.99,,,-99.99,,2013-02-15 01:31:00,
2013-02-14 19:41:00,48.0,29.0,30.02,NW,325,5.0,10.0,48,-99.99,,,-99.99,,2013-02-15 01:41:00,
2013-02-14 19:51:00,48.0,29.0,30.02,NW,325,5.0,10.0,48,-99.99,,,-99.99,,2013-02-15 01:51:00,
2013-02-14 20:01:00,47.0,29.0,30.02,NW,315,5.0,7.0,50,-99.99,,,-99.99,,2013-02-15 02:01:00,
2013-02-14 20:11:00,47.0,29.0,30.03,NNW,335,5.0,8.0,50,-99.99,,,-99.99,,2013-02-15 02:11:00,
2013-02-14 20:21:00,47.0,29.0,30.03,NNW,335,5.0,8.0,50,-99.99,,,-99.99,,2013-02-15 02:21:00,
2013-02-14 20:31:00,47.0,29.0,30.03,NNW,340,5.0,7.0,50,-99.99,,,-99.99,,2013-02-15 02:31:00,
2013-02-14 20:41:00,47.0,29.0,30.03,NNW,330,5.0,7.0,51,-99.99,,,-99.99,,2013-02-15 02:41:00,
2013-02-14 20:52:00,47.0,29.0,30.03,NNW,330,5.0,7.0,51,-99.99,,,-99.99,,2013-02-15 02:52:00,
2013-02-14 21:02:00,46.0,30.0,30.03,NNW,340,3.0,6.0,54,-99.99,,,-99.99,,2013-02-15 03:02:00,
2013-02-14 21:11:00,45.0,30.0,30.03,NW,325,4.0,7.0,55,-99.99,,,-99.99,,2013-02-15 03:11:00,
2013-02-14 21:22:00,45.0,30.0,30.03,NW,325,4.0,7.0,55,-99.99,,,-99.99,,2013-02-15 03:22:00,
2013-02-14 21:32:00,45.0,30.0,30.04,NW,325,4.0,6.0,56,-99.99,,,-99.99,,2013-02-15 03:32:00,
2013-02-14 21:42:00,45.0,30.0,30.04,NW,310,4.0,8.0,56,-99.99,,,-99.99,,2013-02-15 03:42:00,
2013-02-14 21:51:00,45.0,30.0,30.04,NW,310,4.0,8.0,56,-99.99,,,-99.99,,2013-02-15 03:51:00,
2013-02-14 22:01:00,45.0,31.0,30.04,NW,320,4.0,8.0,57,-99.99,,,-99.99,,2013-02-15 04:01:00,
2013-02-14 22:11:00,45.0,31.0,30.04,NW,305,2.0,5.0,58,-99.99,,,-99.99,,2013-02-15 04:11:00,
2013-02-14 22:21:00,45.0,31.0,30.04,NW,305,2.0,5.0,58,-99.99,,,-99.99,,2013-02-15 04:21:00,
2013-02-14 22:32:00,44.0,31.0,30.05,NW,305,4.0,6.0,59,-99.99,,,-99.99,,2013-02-15 04:32:00,
2013-02-14 22:42:00,44.0,31.0,30.05,NW,310,4.0,6.0,60,-99.99,,,-99.99,,2013-02-15 04:42:00,
2013-02-14 22:52:00,44.0,31.0,30.05,NW,310,4.0,6.0,60,-99.99,,,-99.99,,2013-02-15 04:52:00,
2013-02-14 23:02:00,44.0,31.0,30.05,WNW,295,4.0,8.0,60,-99.99,,,-99.99,,2013-02-15 05:02:00,
2013-02-14 23:12:00,44.0,31.0,30.06,NW,305,6.0,10.0,60,-99.99,,,-99.99,,2013-02-15 05:12:00,
2013-02-14 23:22:00,44.0,31.0,30.06,NW,305,6.0,10.0,60,-99.99,,,-99.99,,2013-02-15 05:22:00,
2013-02-14 23:32:00,44.0,31.0,30.06,NW,325,5.0,9.0,60,-99.99,,,-99.99,,2013-02-15 05:32:00,
2013-02-14 23:42:00,44.0,30.0,30.06,NW,325,6.0,9.0,59,-99.99,,,-99.99,,2013-02-15 05:42:00,
2013-02-14 23:52:00,44.0,30.0,30.06,NW,325,6.0,9.0,59,-99.99,,,-99.99,,2013-02-15 05:52:00,